Time;durP1;ratioP1;P1;durP2;ratioP2;P2;SDS_P1;SDS_P2;PMS_P1;PMS_P2;Temp;Humidity;BMP_temperature;BMP_pressure;BME280_temperature;BME280_humidity;BME280_pressure;Samples;Min_cycle;Max_cycle;Signal;HPM_P1;HPM_P2
2021/03/08 00:00:30;;;;;;;3.00;1.80;;;23.00;47.00;;;;;;5075228;28;20049;-42
2021/03/08 00:02:59;;;;;;;2.55;2.00;;;23.00;47.00;;;;;;5075220;28;20500;-43
2021/03/08 00:05:27;;;;;;;2.05;1.50;;;23.00;47.00;;;;;;5075315;28;20052;-42
2021/03/08 00:07:53;;;;;;;2.10;1.50;;;23.00;47.00;;;;;;5074500;28;20048;-42
2021/03/08 00:10:21;;;;;;;2.40;1.70;;;23.00;47.00;;;;;;5074885;28;20057;-44
2021/03/08 00:12:48;;;;;;;2.30;1.90;;;23.00;47.10;;;;;;5074943;28;20049;-43
2021/03/08 00:15:18;;;;;;;1.35;1.25;;;23.00;47.10;;;;;;5074498;28;20378;-42
2021/03/08 00:17:45;;;;;;;2.30;1.42;;;23.00;47.10;;;;;;5075984;28;20056;-42
2021/03/08 00:20:17;;;;;;;1.88;1.50;;;23.00;47.10;;;;;;5074998;28;20059;-42
2021/03/08 00:22:45;;;;;;;2.05;1.50;;;23.00;47.10;;;;;;5073395;28;20049;-43
2021/03/08 00:25:17;;;;;;;2.33;1.70;;;23.00;47.10;;;;;;5073798;28;20044;-42
2021/03/08 00:27:44;;;;;;;2.30;1.73;;;23.00;47.20;;;;;;5075024;28;20040;-42
2021/03/08 00:30:11;;;;;;;1.98;1.63;;;23.00;47.20;;;;;;5072849;28;20305;-45
2021/03/08 00:32:38;;;;;;;1.83;1.60;;;23.00;47.20;;;;;;5074586;28;20053;-42
2021/03/08 00:35:07;;;;;;;2.10;1.70;;;23.00;47.20;;;;;;5074811;28;20052;-44
2021/03/08 00:37:34;;;;;;;1.75;1.40;;;23.00;47.20;;;;;;5073732;28;20056;-45
2021/03/08 00:40:06;;;;;;;1.90;1.58;;;23.00;47.20;;;;;;5074589;28;20056;-42
2021/03/08 00:42:34;;;;;;;2.67;1.75;;;23.00;47.20;;;;;;5074425;28;20098;-42
2021/03/08 00:45:01;;;;;;;2.75;1.80;;;23.00;47.20;;;;;;5072680;28;20122;-43
2021/03/08 00:47:27;;;;;;;1.27;1.15;;;23.00;47.30;;;;;;5074527;28;20044;-45
2021/03/08 00:49:54;;;;;;;2.03;1.65;;;22.90;47.20;;;;;;5074201;28;20047;-43
2021/03/08 00:52:21;;;;;;;1.88;1.50;;;22.90;47.20;;;;;;5073765;28;20045;-43
2021/03/08 00:54:47;;;;;;;2.72;2.05;;;23.00;47.30;;;;;;5073948;28;20400;-42
2021/03/08 00:57:14;;;;;;;2.42;1.55;;;22.90;47.20;;;;;;5074095;28;20052;-43
2021/03/08 00:59:41;;;;;;;2.00;1.50;;;22.90;47.20;;;;;;5073166;28;20049;-42
2021/03/08 01:02:08;;;;;;;2.53;1.63;;;22.90;47.30;;;;;;5073926;28;20064;-43
2021/03/08 01:04:35;;;;;;;2.20;1.60;;;22.90;47.30;;;;;;5074262;28;20120;-46
2021/03/08 01:07:02;;;;;;;1.70;1.50;;;22.90;47.30;;;;;;5072885;28;20056;-44
2021/03/08 01:09:29;;;;;;;2.13;1.55;;;22.90;47.30;;;;;;5073826;28;20094;-44
2021/03/08 01:11:56;;;;;;;1.98;1.77;;;22.90;47.30;;;;;;5074116;28;20053;-45
2021/03/08 01:14:23;;;;;;;1.80;1.60;;;22.90;47.30;;;;;;5073489;28;20049;-48
2021/03/08 01:16:49;;;;;;;1.75;1.48;;;22.90;47.40;;;;;;5074052;28;20052;-43
2021/03/08 01:19:16;;;;;;;1.60;1.50;;;22.90;47.40;;;;;;5073638;28;20045;-47
2021/03/08 01:21:43;;;;;;;2.08;1.60;;;22.90;47.40;;;;;;5071847;28;20488;-45
2021/03/08 01:24:10;;;;;;;1.63;1.30;;;22.90;47.40;;;;;;5072392;28;20041;-48
2021/03/08 01:26:37;;;;;;;2.03;1.55;;;22.90;47.40;;;;;;5073475;28;20055;-43
2021/03/08 01:29:04;;;;;;;2.92;1.73;;;22.90;47.40;;;;;;5073030;28;20070;-44
2021/03/08 01:31:31;;;;;;;2.03;1.67;;;22.90;47.40;;;;;;5073270;28;20060;-44
2021/03/08 01:33:57;;;;;;;2.30;1.80;;;22.90;47.40;;;;;;5072522;28;20503;-44
2021/03/08 01:36:24;;;;;;;2.00;1.55;;;22.90;47.40;;;;;;5073330;28;20048;-47
2021/03/08 01:38:51;;;;;;;2.40;1.55;;;22.90;47.40;;;;;;5072582;28;20071;-44
2021/03/08 01:41:17;;;;;;;1.75;1.50;;;22.90;47.50;;;;;;5073788;28;20450;-42
2021/03/08 01:43:44;;;;;;;2.78;1.48;;;22.90;47.50;;;;;;5073806;28;20048;-45
2021/03/08 01:46:11;;;;;;;2.97;1.67;;;22.90;47.50;;;;;;5072831;28;20052;-43
2021/03/08 01:48:38;;;;;;;2.30;1.65;;;22.90;47.50;;;;;;5073231;28;20083;-44
2021/03/08 01:51:05;;;;;;;2.25;1.65;;;22.90;47.50;;;;;;5073397;28;20053;-43
2021/03/08 01:53:35;;;;;;;2.63;2.03;;;22.90;48.10;;;;;;5072688;28;20044;-44
2021/03/08 01:56:04;;;;;;;2.47;1.63;;;22.90;47.50;;;;;;5073917;28;20048;-46
2021/03/08 01:58:31;;;;;;;2.30;1.67;;;22.90;47.50;;;;;;5073870;28;20091;-46
2021/03/08 02:00:58;;;;;;;2.55;1.92;;;22.80;47.50;;;;;;5070862;28;20086;-46
2021/03/08 02:03:25;;;;;;;2.75;1.73;;;22.90;47.60;;;;;;5073017;28;20055;-42
2021/03/08 02:05:52;;;;;;;2.10;1.60;;;22.90;47.60;;;;;;5072588;28;20044;-45
2021/03/08 02:08:21;;;;;;;2.15;1.60;;;22.90;47.60;;;;;;5072258;28;20048;-43
2021/03/08 02:10:49;;;;;;;2.15;1.80;;;22.80;47.50;;;;;;5073237;28;20338;-43
2021/03/08 02:13:43;;;;;;;3.00;1.70;;;22.90;47.60;;;;;;5072923;28;20053;-46
2021/03/08 02:16:19;;;;;;;1.67;1.45;;;22.80;47.50;;;;;;5072487;28;20106;-47
2021/03/08 02:18:55;;;;;;;2.67;1.95;;;22.90;47.60;;;;;;5073254;28;20048;-49
2021/03/08 02:21:27;;;;;;;2.17;1.50;;;22.80;47.50;;;;;;5072761;28;20044;-43
2021/03/08 02:24:36;;;;;;;2.15;1.55;;;22.80;47.60;;;;;;5072453;28;20049;-46
2021/03/08 02:27:08;;;;;;;2.40;1.90;;;22.80;47.60;;;;;;5067371;28;20044;-42
2021/03/08 02:29:50;;;;;;;2.83;1.98;;;22.80;47.60;;;;;;5072456;28;20435;-46
2021/03/08 02:32:25;;;;;;;2.00;1.60;;;22.80;47.60;;;;;;5072778;28;20060;-47
2021/03/08 02:35:12;;;;;;;2.30;1.45;;;22.80;47.60;;;;;;5072817;28;20135;-43
2021/03/08 02:37:46;;;;;;;2.13;1.70;;;22.80;47.60;;;;;;5071969;28;20057;-45
2021/03/08 02:40:15;;;;;;;;;;;22.80;47.60;;;;;;5073293;28;20082;-45
2021/03/08 02:42:45;;;;;;;1.73;1.63;;;22.80;47.60;;;;;;5088583;28;19920;-47
2021/03/08 02:45:15;;;;;;;2.00;1.60;;;22.80;47.60;;;;;;5071875;28;20060;-45
2021/03/08 02:47:46;;;;;;;2.72;1.70;;;22.80;47.70;;;;;;5071429;28;20107;-49
2021/03/08 02:50:15;;;;;;;2.40;2.00;;;22.80;47.70;;;;;;5072901;28;20158;-47
2021/03/08 02:53:13;;;;;;;2.10;1.70;;;22.80;47.70;;;;;;5071759;28;20052;-44
2021/03/08 02:56:13;;;;;;;2.30;1.65;;;22.80;47.70;;;;;;5072465;28;20053;-43
2021/03/08 02:58:44;;;;;;;1.85;1.48;;;22.80;47.70;;;;;;5065206;28;20060;-43
2021/03/08 03:01:13;;;;;;;2.20;1.80;;;22.80;47.70;;;;;;5071838;28;20048;-48
2021/03/08 03:03:45;;;;;;;2.63;1.67;;;22.80;47.70;;;;;;5072784;28;20045;-48
2021/03/08 03:06:13;;;;;;;2.03;1.50;;;22.80;47.70;;;;;;5072462;28;20094;-43
2021/03/08 03:08:42;;;;;;;2.65;1.88;;;22.80;47.70;;;;;;5071562;28;20102;-43
2021/03/08 03:11:11;;;;;;;2.28;1.70;;;22.80;47.70;;;;;;5071758;28;20098;-44
2021/03/08 03:13:41;;;;;;;2.38;1.77;;;22.80;47.70;;;;;;5072678;28;20102;-43
2021/03/08 03:16:09;;;;;;;2.35;1.70;;;22.80;47.70;;;;;;5071634;28;20492;-45
2021/03/08 03:18:38;;;;;;;2.75;1.95;;;22.80;47.70;;;;;;5075199;28;20106;-43
2021/03/08 03:21:07;;;;;;;2.08;1.55;;;22.80;47.70;;;;;;5076177;28;20044;-46
2021/03/08 03:23:37;;;;;;;2.25;1.45;;;22.80;47.70;;;;;;5075117;28;20049;-43
2021/03/08 03:26:06;;;;;;;1.98;1.50;;;22.80;47.70;;;;;;5075901;28;20098;-42
2021/03/08 03:28:34;;;;;;;2.40;1.67;;;22.80;47.80;;;;;;5075820;28;20044;-43
2021/03/08 03:31:02;;;;;;;2.33;1.73;;;22.80;47.80;;;;;;5074807;28;20080;-50
2021/03/08 03:33:30;;;;;;;2.10;1.60;;;22.80;47.80;;;;;;5076020;28;20514;-45
2021/03/08 03:35:58;;;;;;;3.20;1.75;;;22.80;47.80;;;;;;5075999;28;20076;-42
2021/03/08 03:38:26;;;;;;;2.17;1.80;;;22.80;47.80;;;;;;5073395;28;20114;-44
2021/03/08 03:40:53;;;;;;;2.15;1.60;;;22.80;47.80;;;;;;5075481;28;20040;-46
2021/03/08 03:43:20;;;;;;;2.10;1.50;;;22.80;47.80;;;;;;5075478;28;20132;-42
2021/03/08 03:45:52;;;;;;;2.33;1.65;;;22.80;47.80;;;;;;5075034;28;20100;-43
2021/03/08 03:48:19;;;;;;;2.38;1.50;;;22.70;47.70;;;;;;5075444;28;20044;-43
2021/03/08 03:50:46;;;;;;;2.08;1.58;;;22.80;47.80;;;;;;5075723;28;20458;-44
2021/03/08 03:53:13;;;;;;;2.17;1.70;;;22.70;47.70;;;;;;5073672;28;20060;-45
2021/03/08 03:55:39;;;;;;;1.80;1.45;;;22.70;47.70;;;;;;5074051;28;20052;-42
2021/03/08 03:58:19;;;;;;;1.73;1.60;;;22.70;47.70;;;;;;5075306;28;20408;-43
2021/03/08 04:01:15;;;;;;;2.10;1.60;;;22.70;47.70;;;;;;5074352;28;20045;-46
2021/03/08 04:03:58;;;;;;;2.40;1.85;;;22.70;47.70;;;;;;5075539;28;20048;-45
2021/03/08 04:06:48;;;;;;;2.45;1.70;;;22.80;47.80;;;;;;5075129;28;20044;-46
2021/03/08 04:09:20;;;;;;;2.50;1.77;;;22.80;47.80;;;;;;5074689;28;20454;-44
2021/03/08 04:11:52;;;;;;;2.92;1.95;;;22.70;47.80;;;;;;5075078;28;20048;-42
2021/03/08 04:14:22;;;;;;;2.17;1.95;;;22.70;47.80;;;;;;5075819;28;20060;-44
2021/03/08 04:16:53;;;;;;;1.95;1.55;;;22.70;47.80;;;;;;5074814;28;20044;-43
2021/03/08 04:19:22;;;;;;;2.85;2.00;;;22.70;47.80;;;;;;5075513;28;20189;-43
2021/03/08 04:21:54;;;;;;;2.47;1.75;;;22.70;47.80;;;;;;5075087;28;20048;-43
2021/03/08 04:24:21;;;;;;;2.72;1.92;;;22.70;47.80;;;;;;5074071;28;20060;-43
2021/03/08 04:26:49;;;;;;;2.08;1.63;;;22.70;47.80;;;;;;5074709;28;20052;-42
2021/03/08 04:29:18;;;;;;;2.92;1.67;;;22.70;47.80;;;;;;5074432;28;20049;-43
2021/03/08 04:31:45;;;;;;;2.67;1.65;;;22.70;47.80;;;;;;5073155;28;20044;-44
2021/03/08 04:34:14;;;;;;;1.88;1.50;;;22.70;47.80;;;;;;5074790;28;20056;-43
2021/03/08 04:36:41;;;;;;;2.28;1.75;;;22.70;47.80;;;;;;5074316;28;20100;-43
2021/03/08 04:39:11;;;;;;;2.30;1.63;;;22.70;47.80;;;;;;5072575;28;20462;-42
2021/03/08 04:41:39;;;;;;;2.15;1.70;;;22.70;47.80;;;;;;5073468;28;20048;-43
2021/03/08 04:44:07;;;;;;;1.77;1.35;;;22.70;47.80;;;;;;5074259;28;20098;-44
2021/03/08 04:46:36;;;;;;;2.28;1.60;;;22.70;47.80;;;;;;5073932;28;20049;-43
2021/03/08 04:49:06;;;;;;;2.70;1.85;;;22.70;47.80;;;;;;5074594;28;20049;-42
2021/03/08 04:51:37;;;;;;;1.73;1.50;;;22.70;47.80;;;;;;5074139;28;20546;-45
2021/03/08 04:54:05;;;;;;;1.75;1.48;;;22.70;47.80;;;;;;5073797;28;20122;-42
2021/03/08 04:56:33;;;;;;;2.30;1.75;;;22.70;47.80;;;;;;5074028;28;20106;-43
2021/03/08 04:59:03;;;;;;;2.33;1.77;;;22.70;47.80;;;;;;5074053;28;20052;-43
2021/03/08 05:01:34;;;;;;;2.45;1.73;;;22.70;47.80;;;;;;5073084;28;20140;-45
2021/03/08 05:04:05;;;;;;;3.55;1.80;;;22.70;47.80;;;;;;5073305;28;20518;-43
2021/03/08 05:06:38;;;;;;;2.05;1.50;;;22.70;47.80;;;;;;5072683;28;20090;-43
2021/03/08 05:09:06;;;;;;;2.17;1.67;;;22.70;47.80;;;;;;5072270;28;20094;-42
2021/03/08 05:11:37;;;;;;;2.33;1.70;;;22.70;47.80;;;;;;5074655;28;20052;-43
2021/03/08 05:14:10;;;;;;;2.08;1.60;;;22.70;47.80;;;;;;5073704;28;20056;-45
2021/03/08 05:16:42;;;;;;;2.08;1.63;;;22.70;47.80;;;;;;5073323;28;20084;-42
2021/03/08 05:19:10;;;;;;;2.25;1.83;;;22.70;47.80;;;;;;5072926;28;20412;-43
2021/03/08 05:21:37;;;;;;;1.92;1.70;;;22.70;47.80;;;;;;5073873;28;20446;-46
2021/03/08 05:24:05;;;;;;;1.92;1.55;;;22.70;47.80;;;;;;5072968;28;20070;-43
2021/03/08 05:26:33;;;;;;;2.40;1.77;;;22.70;47.80;;;;;;5073830;28;20045;-43
2021/03/08 05:29:01;;;;;;;2.65;1.80;;;22.70;47.90;;;;;;5073362;28;20044;-42
2021/03/08 05:31:31;;;;;;;1.88;1.52;;;22.70;47.90;;;;;;5071950;28;20044;-43
2021/03/08 05:34:03;;;;;;;2.13;1.60;;;22.70;47.90;;;;;;5072972;28;20048;-44
2021/03/08 05:36:37;;;;;;;2.50;1.90;;;22.70;47.80;;;;;;5073961;28;20045;-49
2021/03/08 05:39:04;;;;;;;2.72;2.00;;;22.70;47.90;;;;;;5072563;28;20060;-43
2021/03/08 05:41:34;;;;;;;2.10;1.55;;;22.70;47.80;;;;;;5073153;28;20048;-50
2021/03/08 05:44:03;;;;;;;2.03;1.75;;;22.70;47.90;;;;;;5073841;28;20106;-49
2021/03/08 05:46:36;;;;;;;2.60;1.50;;;22.70;47.90;;;;;;5073486;28;20428;-45
2021/03/08 05:49:09;;;;;;;2.27;1.73;;;22.70;47.90;;;;;;5072527;28;20048;-46
2021/03/08 05:51:55;;;;;;;2.65;1.73;;;22.70;47.90;;;;;;5072876;28;20374;-50
2021/03/08 05:55:01;;;;;;;2.20;1.77;;;22.70;47.90;;;;;;5072568;28;20052;-44
2021/03/08 05:57:33;;;;;;;2.90;1.80;;;22.60;47.80;;;;;;5052393;28;20094;-43
2021/03/08 06:00:30;;;;;;;2.53;1.77;;;22.70;47.90;;;;;;5073476;28;20056;-47
2021/03/08 06:03:08;;;;;;;2.50;1.70;;;22.70;47.90;;;;;;5072628;28;20475;-46
2021/03/08 06:06:12;;;;;;;2.47;1.85;;;22.70;47.90;;;;;;5073293;28;20148;-45
2021/03/08 06:09:10;;;;;;;2.67;2.13;;;22.70;47.90;;;;;;5073087;28;20404;-43
2021/03/08 06:11:40;;;;;;;2.00;1.50;;;22.60;47.80;;;;;;5072210;28;20048;-47
2021/03/08 06:14:10;;;;;;;2.38;1.70;;;22.70;47.90;;;;;;5072812;28;20094;-44
2021/03/08 06:16:37;;;;;;;2.90;2.00;;;22.70;47.90;;;;;;5071601;28;20055;-47
2021/03/08 06:19:07;;;;;;;2.58;2.10;;;22.60;47.80;;;;;;5072063;28;20049;-42
2021/03/08 06:21:35;;;;;;;2.42;2.13;;;22.70;47.90;;;;;;5073144;28;20447;-44
2021/03/08 06:24:04;;;;;;;3.17;2.25;;;22.70;47.90;;;;;;5073085;28;20053;-46
2021/03/08 06:26:32;;;;;;;2.03;1.40;;;22.60;47.80;;;;;;5072075;28;20056;-46
2021/03/08 06:28:59;;;;;;;3.58;2.03;;;22.60;47.80;;;;;;5071569;28;20048;-46
2021/03/08 06:31:26;;;;;;;2.28;1.67;;;22.70;47.90;;;;;;5072890;28;20127;-46
2021/03/08 06:33:57;;;;;;;1.90;1.63;;;22.70;47.90;;;;;;5072344;28;20045;-43
2021/03/08 06:36:24;;;;;;;2.28;1.67;;;22.70;47.90;;;;;;5072834;28;20056;-46
2021/03/08 06:38:51;;;;;;;2.47;1.70;;;22.70;47.90;;;;;;5072598;28;20106;-42
2021/03/08 06:41:18;;;;;;;2.83;1.75;;;22.70;47.90;;;;;;5072100;28;20044;-47
2021/03/08 06:43:45;;;;;;;2.30;1.70;;;22.70;47.90;;;;;;5072840;28;20044;-44
2021/03/08 06:46:16;;;;;;;2.65;1.73;;;22.70;47.80;;;;;;5072468;28;20545;-44
2021/03/08 06:48:44;;;;;;;2.67;1.90;;;22.70;47.80;;;;;;5071779;28;20041;-42
2021/03/08 06:51:19;;;;;;;2.75;1.60;;;22.70;47.90;;;;;;5072698;28;20463;-43
2021/03/08 06:53:46;;;;;;;3.15;1.95;;;22.70;47.90;;;;;;5074154;28;20048;-43
2021/03/08 06:56:21;;;;;;;2.17;1.67;;;22.70;48.50;;;;;;5075612;28;20052;-44
2021/03/08 06:59:04;;;;;;;2.15;1.80;;;22.70;47.80;;;;;;5075191;28;20056;-43
2021/03/08 07:01:33;;;;;;;2.88;1.92;;;22.70;47.80;;;;;;5075852;28;20040;-45
2021/03/08 07:04:23;;;;;;;1.98;1.55;;;22.70;47.80;;;;;;5075329;28;20489;-42
2021/03/08 07:07:06;;;;;;;2.78;2.08;;;22.70;47.80;;;;;;5076416;28;20059;-43
2021/03/08 07:09:46;;;;;;;1.90;1.70;;;22.70;47.80;;;;;;5076634;28;20090;-43
2021/03/08 07:12:14;;;;;;;2.13;1.83;;;22.70;47.80;;;;;;5075609;28;20049;-42
2021/03/08 07:14:42;;;;;;;2.30;1.75;;;22.70;47.80;;;;;;5076166;28;20053;-45
2021/03/08 07:17:28;;;;;;;2.20;1.67;;;22.70;47.80;;;;;;5076239;28;20075;-43
2021/03/08 07:19:57;;;;;;;2.75;1.80;;;22.70;47.80;;;;;;5075120;28;20052;-43
2021/03/08 07:22:36;;;;;;;2.22;1.67;;;22.70;47.80;;;;;;5075996;28;20408;-42
2021/03/08 07:25:06;;;;;;;2.17;1.55;;;22.70;47.80;;;;;;5075747;28;20051;-45
2021/03/08 07:27:48;;;;;;;2.10;1.80;;;22.70;47.80;;;;;;5075251;28;20110;-44
2021/03/08 07:30:16;;;;;;;2.15;1.65;;;22.70;47.80;;;;;;5075625;28;20055;-45
2021/03/08 07:32:53;;;;;;;1.83;1.40;;;22.70;47.80;;;;;;5075834;28;20060;-42
2021/03/08 07:35:42;;;;;;;3.08;2.00;;;22.70;48.40;;;;;;5075207;28;20056;-44
2021/03/08 07:38:12;;;;;;;3.38;1.92;;;22.70;48.40;;;;;;5068557;28;20470;-42
2021/03/08 07:40:42;;;;;;;2.55;2.08;;;22.70;47.80;;;;;;5074571;28;20056;-42
2021/03/08 07:43:29;;;;;;;2.15;1.65;;;22.70;47.80;;;;;;5076193;28;20381;-44
2021/03/08 07:45:55;;;;;;;2.42;1.90;;;22.70;47.80;;;;;;5075796;28;20484;-44
2021/03/08 07:48:22;;;;;;;1.80;1.70;;;22.70;47.80;;;;;;5074182;28;20041;-44
2021/03/08 07:50:51;;;;;;;2.63;1.83;;;22.70;47.80;;;;;;5074962;28;20071;-46
2021/03/08 07:53:36;;;;;;;2.22;1.70;;;22.70;47.80;;;;;;5075342;28;20098;-43
2021/03/08 07:56:04;;;;;;;2.78;1.60;;;22.70;47.80;;;;;;5074908;28;20126;-46
2021/03/08 07:58:33;;;;;;;3.15;1.90;;;22.70;47.70;;;;;;5075428;28;20056;-43
2021/03/08 08:01:03;;;;;;;3.63;2.13;;;22.70;47.80;;;;;;5075146;28;20049;-43
2021/03/08 08:03:32;;;;;;;2.33;1.85;;;22.70;48.30;;;;;;5073750;28;20048;-42
2021/03/08 08:06:05;;;;;;;2.28;1.58;;;22.70;47.80;;;;;;5074374;28;20128;-42
2021/03/08 08:08:34;;;;;;;2.47;1.60;;;22.70;47.70;;;;;;5075117;28;20098;-43
2021/03/08 08:11:03;;;;;;;2.70;1.90;;;22.70;47.70;;;;;;5074355;28;20091;-44
2021/03/08 08:13:59;;;;;;;2.58;1.95;;;22.70;47.70;;;;;;5074929;28;20098;-42
2021/03/08 08:16:30;;;;;;;2.15;1.70;;;22.70;47.70;;;;;;5074700;28;20052;-42
2021/03/08 08:19:05;;;;;;;2.05;1.73;;;22.80;47.80;;;;;;5074007;28;20052;-44
2021/03/08 08:21:37;;;;;;;2.42;1.95;;;22.70;47.70;;;;;;5074567;28;20048;-42
2021/03/08 08:24:07;;;;;;;2.85;1.67;;;22.80;47.80;;;;;;5074780;28;20052;-45
2021/03/08 08:26:34;;;;;;;1.77;1.60;;;22.80;47.80;;;;;;5073747;28;20049;-42
2021/03/08 08:29:01;;;;;;;2.47;1.65;;;22.80;47.80;;;;;;5073815;28;20086;-44
2021/03/08 08:31:48;;;;;;;2.08;1.80;;;22.80;47.80;;;;;;5074488;28;20052;-42
2021/03/08 08:34:36;;;;;;;2.25;1.65;;;22.80;47.80;;;;;;5073669;28;20045;-45
2021/03/08 08:37:16;;;;;;;2.15;1.83;;;22.80;47.80;;;;;;5074326;28;20049;-42
2021/03/08 08:39:51;;;;;;;1.98;1.70;;;22.80;47.80;;;;;;5074391;28;20408;-43
2021/03/08 08:42:22;;;;;;;2.05;1.77;;;22.80;47.80;;;;;;5073239;28;20056;-45
2021/03/08 08:44:51;;;;;;;2.53;1.98;;;22.80;47.80;;;;;;5074453;28;20118;-45
2021/03/08 08:47:19;;;;;;;2.45;1.67;;;22.80;47.70;;;;;;5074471;28;20092;-43
2021/03/08 08:49:48;;;;;;;2.95;2.10;;;22.80;47.80;;;;;;5073494;28;20055;-44
2021/03/08 08:52:17;;;;;;;2.50;1.75;;;22.80;47.70;;;;;;5072885;28;20044;-43
2021/03/08 08:54:47;;;;;;;2.13;1.58;;;22.80;47.70;;;;;;5072871;28;20055;-42
2021/03/08 08:57:13;;;;;;;2.95;1.80;;;22.80;47.70;;;;;;5073520;28;20052;-43
2021/03/08 08:59:49;;;;;;;2.40;1.92;;;22.80;47.70;;;;;;5073796;28;20052;-46
2021/03/08 09:02:22;;;;;;;2.72;1.73;;;22.80;47.60;;;;;;5073912;28;20052;-44
2021/03/08 09:04:49;;;;;;;2.95;2.30;;;22.80;47.60;;;;;;5073186;28;20503;-44
2021/03/08 09:07:24;;;;;;;2.40;1.85;;;22.80;47.60;;;;;;5073754;28;20051;-43
2021/03/08 09:09:56;;;;;;;2.45;1.77;;;22.80;47.60;;;;;;5072844;28;20065;-47
2021/03/08 09:12:40;;;;;;;1.80;1.58;;;22.80;47.60;;;;;;5073303;28;20045;-46
2021/03/08 09:15:11;;;;;;;2.50;1.80;;;22.80;47.60;;;;;;5073470;28;20054;-45
2021/03/08 09:17:45;;;;;;;2.53;1.65;;;22.80;47.50;;;;;;5072350;28;20055;-46
2021/03/08 09:20:12;;;;;;;;;;;22.80;47.50;;;;;;5073670;28;20079;-47
2021/03/08 09:22:44;;;;;;;2.78;1.80;;;22.80;47.50;;;;;;5073707;28;19920;-50
2021/03/08 09:25:16;;;;;;;1.92;1.70;;;22.80;47.50;;;;;;5073547;28;20492;-48
2021/03/08 09:28:10;;;;;;;2.80;2.00;;;22.80;47.50;;;;;;5072997;28;20055;-46
2021/03/08 09:30:48;;;;;;;2.85;1.83;;;22.80;47.50;;;;;;5072527;28;20048;-49
2021/03/08 09:33:20;;;;;;;2.38;1.80;;;22.80;47.40;;;;;;5072224;28;20079;-45
2021/03/08 09:35:56;;;;;;;3.08;2.08;;;22.80;47.40;;;;;;5072884;28;20444;-44
2021/03/08 09:38:24;;;;;;;3.35;2.20;;;22.80;47.40;;;;;;5073163;28;20056;-45
2021/03/08 09:40:56;;;;;;;2.35;1.80;;;22.80;48.00;;;;;;5071984;28;20052;-44
2021/03/08 09:43:31;;;;;;;2.33;1.80;;;22.80;47.30;;;;;;5072798;28;20052;-49
2021/03/08 09:46:18;;;;;;;2.83;1.80;;;22.80;47.30;;;;;;5072343;28;20389;-45
2021/03/08 09:48:53;;;;;;;2.60;1.95;;;22.80;47.30;;;;;;5073358;28;20388;-45
2021/03/08 09:51:21;;;;;;;2.92;1.88;;;22.80;47.20;;;;;;5073025;28;20403;-44
2021/03/08 09:53:58;;;;;;;2.88;1.92;;;22.80;47.20;;;;;;5073303;28;20048;-43
2021/03/08 09:56:26;;;;;;;2.22;1.83;;;22.90;47.30;;;;;;5073323;28;20519;-43
2021/03/08 09:59:00;;;;;;;1.77;1.67;;;22.90;47.20;;;;;;5072218;28;20131;-49
2021/03/08 10:01:27;;;;;;;2.25;1.63;;;22.90;47.20;;;;;;5073043;28;20048;-43
2021/03/08 10:03:54;;;;;;;2.65;1.70;;;22.90;47.20;;;;;;5073414;28;20055;-45
2021/03/08 10:06:41;;;;;;;3.15;1.83;;;22.80;47.10;;;;;;5071955;28;20051;-44
2021/03/08 10:09:19;;;;;;;2.90;2.03;;;22.90;47.10;;;;;;5072748;28;20048;-43
2021/03/08 10:11:47;;;;;;;3.38;2.10;;;22.90;47.10;;;;;;5072924;28;20052;-45
2021/03/08 10:14:25;;;;;;;2.38;1.88;;;22.90;47.10;;;;;;5070947;28;20052;-44
2021/03/08 10:17:03;;;;;;;1.77;1.50;;;22.90;47.10;;;;;;5072712;28;20110;-45
2021/03/08 10:19:32;;;;;;;2.47;1.92;;;22.90;47.10;;;;;;5071634;28;20132;-44
2021/03/08 10:22:01;;;;;;;2.55;1.83;;;22.90;47.10;;;;;;5071847;28;20052;-45
2021/03/08 10:24:40;;;;;;;2.28;1.90;;;22.90;47.10;;;;;;5072638;28;20045;-43
2021/03/08 10:27:13;;;;;;;3.53;2.00;;;22.90;47.00;;;;;;5072929;28;20415;-43
2021/03/08 10:29:41;;;;;;;2.30;1.90;;;22.90;47.10;;;;;;5075548;28;20048;-43
2021/03/08 10:32:10;;;;;;;2.22;1.80;;;22.90;47.00;;;;;;5076843;28;20045;-45
2021/03/08 10:34:39;;;;;;;2.83;1.85;;;22.90;47.00;;;;;;5076857;28;20049;-48
2021/03/08 10:37:12;;;;;;;2.60;1.73;;;22.90;47.00;;;;;;5074749;28;20044;-46
2021/03/08 10:39:42;;;;;;;2.50;1.83;;;22.90;47.00;;;;;;5077041;28;20060;-47
2021/03/08 10:42:10;;;;;;;2.78;1.90;;;22.90;47.00;;;;;;5077117;28;20048;-47
2021/03/08 10:44:37;;;;;;;2.10;1.60;;;22.90;47.00;;;;;;5075005;28;20052;-46
2021/03/08 10:47:16;;;;;;;2.13;1.65;;;22.90;47.00;;;;;;5076495;28;20044;-49
2021/03/08 10:49:51;;;;;;;2.28;1.88;;;22.90;47.00;;;;;;5076540;28;20133;-48
2021/03/08 10:52:18;;;;;;;2.35;1.80;;;23.00;47.00;;;;;;5076164;28;20110;-45
2021/03/08 10:54:45;;;;;;;2.50;1.80;;;23.00;47.00;;;;;;5076609;28;20123;-47
2021/03/08 10:57:12;;;;;;;2.45;1.90;;;22.90;47.00;;;;;;5076666;28;20424;-44
2021/03/08 10:59:48;;;;;;;3.10;2.00;;;22.90;47.00;;;;;;5075562;28;20519;-45
2021/03/08 11:02:16;;;;;;;2.22;1.90;;;22.90;47.00;;;;;;5076336;28;20051;-44
2021/03/08 11:05:12;;;;;;;2.72;1.85;;;23.00;47.00;;;;;;5076210;28;20051;-49
2021/03/08 11:07:39;;;;;;;2.50;2.10;;;22.90;46.90;;;;;;5075685;28;20048;-47
2021/03/08 11:10:07;;;;;;;2.88;1.90;;;22.90;46.90;;;;;;5075954;28;20044;-44
2021/03/08 11:12:34;;;;;;;2.03;1.80;;;22.90;46.90;;;;;;5076373;28;20435;-44
2021/03/08 11:15:02;;;;;;;2.25;1.70;;;23.00;47.00;;;;;;5075645;28;20139;-46
2021/03/08 11:17:41;;;;;;;2.78;1.88;;;23.00;47.00;;;;;;5075981;28;20059;-48
2021/03/08 11:20:19;;;;;;;3.15;1.60;;;23.00;47.00;;;;;;5075971;28;20507;-43
2021/03/08 11:22:57;;;;;;;2.40;1.80;;;23.00;47.00;;;;;;5075439;28;20397;-44
2021/03/08 11:25:25;;;;;;;2.03;1.67;;;23.00;47.00;;;;;;5075931;28;20048;-44
2021/03/08 11:27:52;;;;;;;2.75;2.03;;;23.00;47.00;;;;;;5075306;28;20079;-44
2021/03/08 11:30:19;;;;;;;2.35;1.83;;;23.00;47.00;;;;;;5075815;28;20071;-44
2021/03/08 11:32:54;;;;;;;2.92;2.13;;;23.00;47.00;;;;;;5075485;28;20049;-43
2021/03/08 11:35:29;;;;;;;1.88;1.50;;;23.00;47.00;;;;;;5075207;28;20053;-44
2021/03/08 11:38:09;;;;;;;2.05;1.52;;;23.00;47.00;;;;;;5074561;28;20147;-47
2021/03/08 11:40:45;;;;;;;2.33;1.95;;;23.00;47.00;;;;;;5075781;28;20049;-46
2021/03/08 11:43:18;;;;;;;2.38;1.80;;;23.00;47.00;;;;;;5074674;28;20084;-44
2021/03/08 11:45:45;;;;;;;2.50;1.63;;;23.00;47.00;;;;;;5075238;28;20048;-44
2021/03/08 11:48:12;;;;;;;2.53;1.95;;;23.00;47.00;;;;;;5074463;28;20052;-43
2021/03/08 11:50:39;;;;;;;1.80;1.52;;;23.00;47.00;;;;;;5075344;28;20044;-47
2021/03/08 11:53:25;;;;;;;2.75;1.80;;;23.00;47.00;;;;;;5075223;28;20475;-44
2021/03/08 11:55:52;;;;;;;2.35;1.60;;;23.00;47.00;;;;;;5075589;28;20052;-48
2021/03/08 11:58:20;;;;;;;1.75;1.60;;;23.00;47.00;;;;;;5074460;28;20048;-44
2021/03/08 12:00:47;;;;;;;2.50;2.10;;;23.00;47.10;;;;;;5075435;28;20067;-43
2021/03/08 12:03:13;;;;;;;3.35;1.77;;;23.00;47.00;;;;;;5073941;28;20090;-44
2021/03/08 12:05:40;;;;;;;3.42;1.65;;;23.00;47.60;;;;;;5075204;28;20060;-44
2021/03/08 12:08:26;;;;;;;2.50;1.85;;;23.00;47.10;;;;;;5074943;28;20044;-46
2021/03/08 12:10:52;;;;;;;2.42;1.77;;;23.00;47.10;;;;;;5074808;28;20052;-43
2021/03/08 12:13:19;;;;;;;2.72;1.73;;;23.00;47.00;;;;;;5074470;28;20052;-45
2021/03/08 12:15:46;;;;;;;3.33;1.70;;;23.00;47.10;;;;;;5073558;28;20044;-45
2021/03/08 12:18:12;;;;;;;2.20;1.60;;;23.00;47.10;;;;;;5075116;28;20048;-43
2021/03/08 12:20:39;;;;;;;2.13;1.63;;;23.00;47.10;;;;;;5075152;28;20052;-44
2021/03/08 12:23:06;;;;;;;2.30;1.90;;;23.00;47.10;;;;;;5074274;28;20048;-42
2021/03/08 12:25:33;;;;;;;2.05;1.70;;;23.00;47.10;;;;;;5074699;28;20057;-46
2021/03/08 12:28:00;;;;;;;1.90;1.65;;;23.10;47.20;;;;;;5074979;28;20056;-43
2021/03/08 12:30:27;;;;;;;2.33;1.88;;;23.00;47.10;;;;;;5073710;28;20041;-44
2021/03/08 12:32:54;;;;;;;2.58;1.90;;;23.00;47.10;;;;;;5074907;28;20055;-47
2021/03/08 12:35:21;;;;;;;3.75;1.80;;;23.00;47.20;;;;;;5074814;28;20076;-44
2021/03/08 12:37:47;;;;;;;2.40;1.95;;;23.00;47.20;;;;;;5073631;28;20060;-44
2021/03/08 12:40:14;;;;;;;1.52;1.40;;;23.10;47.30;;;;;;5073300;28;20488;-43
2021/03/08 12:42:41;;;;;;;2.40;1.63;;;23.00;47.20;;;;;;5074687;28;20056;-45
2021/03/08 12:45:08;;;;;;;2.63;1.90;;;23.00;47.20;;;;;;5073792;28;20098;-44
2021/03/08 12:47:35;;;;;;;1.95;1.70;;;23.00;47.20;;;;;;5074268;28;20516;-44
2021/03/08 12:50:03;;;;;;;2.08;1.67;;;23.00;47.20;;;;;;5073517;28;20045;-44
2021/03/08 12:52:32;;;;;;;2.15;1.60;;;23.00;47.20;;;;;;5073796;28;20053;-43
2021/03/08 12:54:59;;;;;;;2.40;1.77;;;23.00;47.20;;;;;;5073970;28;20511;-43
2021/03/08 12:57:26;;;;;;;2.17;1.70;;;23.00;47.20;;;;;;5074364;28;20082;-44
2021/03/08 12:59:53;;;;;;;3.03;2.08;;;23.00;47.20;;;;;;5073133;28;20492;-44
2021/03/08 13:02:21;;;;;;;1.83;1.42;;;23.00;47.20;;;;;;5073910;28;20051;-43
2021/03/08 13:04:48;;;;;;;2.45;1.85;;;23.00;47.20;;;;;;5074225;28;20385;-45
2021/03/08 13:07:14;;;;;;;2.42;1.90;;;23.10;47.30;;;;;;5073043;28;20052;-43
2021/03/08 13:09:41;;;;;;;2.17;1.80;;;23.00;47.20;;;;;;5074021;28;20122;-47